Time;durP1;ratioP1;P1;durP2;ratioP2;P2;SDS_P1;SDS_P2;PMS_P1;PMS_P2;Temp;Humidity;BMP_temperature;BMP_pressure;BME280_temperature;BME280_humidity;BME280_pressure;Samples;Min_cycle;Max_cycle;Signal;HPM_P1;HPM_P2
2022/09/05 00:00:07;;;;;;;;;;;;;;;16.57;75.38;101711.81;5073545;28;19913;-61
2022/09/05 00:02:36;;;;;;;;;;;;;;;16.45;77.10;101709.25;5073653;28;19974;-62
2022/09/05 00:05:11;;;;;;;;;;;;;;;16.36;81.59;101710.19;5072689;28;20450;-61
2022/09/05 00:07:44;;;;;;;;;;;;;;;16.28;75.04;101712.91;5067783;28;19959;-61
2022/09/05 00:10:09;;;;;;;;;;;;;;;16.24;74.09;101707.56;5076900;28;19917;-62
2022/09/05 00:12:35;;;;;;;;;;;;;;;16.24;74.53;101704.91;5073137;28;19923;-62
2022/09/05 00:15:09;;;;;;;;;;;;;;;16.19;78.37;101705.84;5068962;28;19996;-62
2022/09/05 00:17:34;;;;;;;;;;;;;;;16.18;77.09;101708.53;5070126;28;19999;-62
2022/09/05 00:20:20;;;;;;;;;;;;;;;16.18;77.68;101704.06;5072611;28;20359;-62
2022/09/05 00:22:54;;;;;;;;;;;;;;;16.17;74.48;101712.06;5069685;28;19916;-61
2022/09/05 00:25:22;;;;;;;;;;;;;;;16.14;75.42;101706.75;5073119;28;20370;-62
2022/09/05 00:27:54;;;;;;;;;;;;;;;16.09;80.22;101705.88;5072979;28;19916;-61
2022/09/05 00:30:20;;;;;;;;;;;;;;;15.99;79.08;101703.25;5072927;28;19982;-62
2022/09/05 00:33:11;;;;;;;;;;;;;;;15.95;75.43;101711.28;5072940;28;20379;-62
2022/09/05 00:35:46;;;;;;;;;;;;;;;15.94;77.67;101705.03;5071232;28;19912;-62
2022/09/05 00:38:17;;;;;;;;;;;;;;;15.91;82.83;101698.84;5072909;28;19916;-61
2022/09/05 00:40:50;;;;;;;;;;;;;;;15.85;86.70;101705.09;5071892;28;20386;-61
2022/09/05 00:43:26;;;;;;;;;;;;;;;15.85;80.64;101702.44;5072702;28;19978;-61
2022/09/05 00:46:00;;;;;;;;;;;;;;;15.82;80.95;101699.78;5072884;28;19936;-61
2022/09/05 00:48:36;;;;;;;;;;;;;;;15.76;77.85;101699.78;5072822;28;19916;-62
2022/09/05 00:51:10;;;;;;;;;;;;;;;15.71;84.34;101693.56;5069142;28;19920;-61
2022/09/05 00:53:44;;;;;;;;;;;;;;;15.69;85.11;101698.91;5072451;28;20371;-62
2022/09/05 00:56:19;;;;;;;;;;;;;;;15.72;82.58;101690.00;5072593;28;20363;-61
2022/09/05 00:58:45;;;;;;;;;;;;;;;15.74;84.90;101696.22;5068564;28;20381;-61
2022/09/05 01:01:36;;;;;;;;;;;;;;;15.66;84.28;101697.13;5072267;28;19912;-62
2022/09/05 01:04:18;;;;;;;;;;;;;;;15.56;81.00;101695.38;5061995;28;19912;-62
2022/09/05 01:07:15;;;;;;;;;;;;;;;15.48;83.15;101699.88;5070056;28;19962;-62
2022/09/05 01:09:42;;;;;;;;;;;;;;;15.42;79.22;101699.84;4987554;28;20504;-61
2022/09/05 01:12:26;;;;;;;;;;;;;;;15.41;79.66;101692.78;4994951;28;20392;-62
2022/09/05 01:14:51;;;;;;;;;;;;;;;15.40;78.20;101698.97;4995238;28;19913;-62
2022/09/05 01:17:29;;;;;;;;;;;;;;;15.37;77.48;101696.34;4994937;28;19961;-61
2022/09/05 01:20:12;;;;;;;;;;;;;;;15.32;82.18;101694.56;4994779;28;19913;-61
2022/09/05 01:23:00;;;;;;;;;;;;;;;15.30;78.67;101696.34;4992118;28;19917;-61
2022/09/05 01:25:44;;;;;;;;;;;;;;;15.26;79.39;101694.56;4993164;28;19913;-62
2022/09/05 01:28:12;;;;;;;;;;;;;;;15.18;79.41;101691.03;4990804;28;19917;-61
2022/09/05 01:30:40;;;;;;;;;;;;;;;15.15;78.05;101696.34;4994841;28;20329;-62
2022/09/05 01:33:05;;;;;;;;;;;;;;;15.10;78.50;101695.47;4994179;28;19924;-62
2022/09/05 01:35:40;;;;;;;;;;;;;;;15.05;78.45;101690.16;4994572;28;19925;-61
2022/09/05 01:38:14;;;;;;;;;;;;;;;15.03;78.39;101691.94;4991466;28;20349;-62
2022/09/05 01:40:40;;;;;;;;;;;;;;;14.99;79.49;101688.38;4994568;28;19914;-62
2022/09/05 01:43:08;;;;;;;;;;;;;;;14.93;80.43;101688.38;4994138;28;19918;-62
2022/09/05 01:45:58;;;;;;;;;;;;;;;14.87;78.82;101684.81;5041970;28;20274;-62
2022/09/05 01:48:36;;;;;;;;;;;;;;;14.81;79.31;101681.28;5072765;28;19913;-62
2022/09/05 01:51:20;;;;;;;;;;;;;;;14.76;79.90;101677.72;5075679;28;20002;-62
2022/09/05 01:53:49;;;;;;;;;;;;;;;14.73;79.52;101675.06;5075216;28;19968;-62
2022/09/05 01:56:21;;;;;;;;;;;;;;;14.69;80.15;101685.72;5072598;28;19916;-62
2022/09/05 01:58:51;;;;;;;;;;;;;;;14.68;80.04;101689.25;5072408;28;19913;-62
2022/09/05 02:01:21;;;;;;;;;;;;;;;14.67;80.30;101690.16;5075824;28;20282;-61
2022/09/05 02:04:09;;;;;;;;;;;;;;;14.63;79.73;101687.50;5075241;28;19912;-61
2022/09/05 02:06:37;;;;;;;;;;;;;;;14.58;79.71;101689.22;5071561;28;19916;-61
2022/09/05 02:09:38;;;;;;;;;;;;;;;14.53;83.46;101684.78;5072019;28;20015;-62
2022/09/05 02:12:22;;;;;;;;;;;;;;;14.50;80.73;101690.97;4966515;28;20406;-61
2022/09/05 02:14:55;;;;;;;;;;;;;;;14.46;81.53;101695.41;4964824;28;20285;-61
2022/09/05 02:17:35;;;;;;;;;;;;;;;14.46;82.00;101695.41;4963718;28;19930;-62
2022/09/05 02:20:19;;;;;;;;;;;;;;;14.47;85.06;101696.28;4965423;28;19936;-62
2022/09/05 02:23:01;;;;;;;;;;;;;;;14.48;83.28;101690.97;4965208;28;20337;-62
2022/09/05 02:25:29;;;;;;;;;;;;;;;14.48;85.22;101688.31;4966271;28;19914;-62
2022/09/05 02:28:10;;;;;;;;;;;;;;;14.46;88.98;101698.06;4965065;28;19918;-61
2022/09/05 02:30:40;;;;;;;;;;;;;;;14.35;86.27;101696.28;4965372;28;19914;-61
2022/09/05 02:33:11;;;;;;;;;;;;;;;14.32;85.93;101701.59;4963829;28;19910;-61
2022/09/05 02:35:41;;;;;;;;;;;;;;;14.33;85.72;101706.00;4965207;28;20300;-61
2022/09/05 02:38:21;;;;;;;;;;;;;;;14.34;84.32;101699.81;4965829;28;20385;-61
2022/09/05 02:40:54;;;;;;;;;;;;;;;14.33;85.23;101706.91;4963852;28;20377;-62
2022/09/05 02:43:28;;;;;;;;;;;;;;;14.32;84.73;101701.59;4965033;28;19914;-61
2022/09/05 02:45:53;;;;;;;;;;;;;;;14.28;85.07;101701.59;5011661;28;19955;-61
2022/09/05 02:48:27;;;;;;;;;;;;;;;14.21;87.34;101707.78;5074293;28;20315;-62
2022/09/05 02:50:58;;;;;;;;;;;;;;;14.12;85.97;101705.06;5071705;28;19916;-62
2022/09/05 02:53:24;;;;;;;;;;;;;;;14.07;85.72;101699.75;5074688;28;19912;-62
2022/09/05 02:56:08;;;;;;;;;;;;;;;14.02;85.88;101703.25;5075098;28;20007;-62
2022/09/05 02:58:33;;;;;;;;;;;;;;;14.00;85.86;101699.72;5073176;28;19912;-61
2022/09/05 03:01:02;;;;;;;;;;;;;;;13.97;85.93;101702.38;5074456;28;20348;-62
2022/09/05 03:03:39;;;;;;;;;;;;;;;13.95;85.86;101707.69;5074725;28;19912;-61
2022/09/05 03:06:04;;;;;;;;;;;;;;;13.95;85.92;101705.03;5074566;28;19919;-61
2022/09/05 03:08:32;;;;;;;;;;;;;;;13.91;86.38;101696.16;5074842;28;19912;-62
2022/09/05 03:11:27;;;;;;;;;;;;;;;13.85;87.05;101706.75;5074183;28;19912;-61
2022/09/05 03:13:55;;;;;;;;;;;;;;;13.78;86.62;101710.25;5070721;28;19924;-62
2022/09/05 03:16:49;;;;;;;;;;;;;;;13.77;86.87;101708.47;5067213;28;19917;-61
2022/09/05 03:19:25;;;;;;;;;;;;;;;13.77;87.20;101703.16;4992353;28;19917;-61
2022/09/05 03:21:53;;;;;;;;;;;;;;;13.76;87.98;101701.38;4992732;28;20363;-61
2022/09/05 03:24:33;;;;;;;;;;;;;;;13.71;87.60;101704.00;4992913;28;19918;-61
2022/09/05 03:27:17;;;;;;;;;;;;;;;13.69;87.56;101703.13;4989173;28;19914;-61
2022/09/05 03:30:00;;;;;;;;;;;;;;;13.64;89.66;101696.91;4990831;28;19929;-61
2022/09/05 03:32:49;;;;;;;;;;;;;;;13.65;89.64;101700.47;4988654;28;19914;-61
2022/09/05 03:35:29;;;;;;;;;;;;;;;13.64;88.63;101699.56;4982531;28;20060;-61
2022/09/05 03:38:13;;;;;;;;;;;;;;;13.69;89.56;101700.47;4992587;28;19914;-62
2022/09/05 03:40:58;;;;;;;;;;;;;;;13.77;96.09;101703.16;4990245;28;19953;-61
2022/09/05 03:43:30;;;;;;;;;;;;;;;13.77;96.33;101695.19;4992333;28;19921;-61
2022/09/05 03:46:03;;;;;;;;;;;;;;;13.71;94.32;101700.47;4992242;28;20004;-61
2022/09/05 03:48:40;;;;;;;;;;;;;;;13.58;91.59;101702.19;4988535;28;20368;-61
2022/09/05 03:51:05;;;;;;;;;;;;;;;13.50;92.11;101699.50;4989392;28;20304;-61
2022/09/05 03:53:42;;;;;;;;;;;;;;;13.47;92.95;101704.78;4992255;28;19914;-62
2022/09/05 03:56:20;;;;;;;;;;;;;;;13.45;93.17;101700.34;5046675;28;20378;-61
2022/09/05 03:58:54;;;;;;;;;;;;;;;13.42;93.32;101696.78;5073232;28;19913;-61
2022/09/05 04:01:28;;;;;;;;;;;;;;;13.42;93.30;101693.25;5073251;28;19919;-61
2022/09/05 04:04:05;;;;;;;;;;;;;;;13.46;96.52;101695.03;5073208;28;20286;-61
2022/09/05 04:06:36;;;;;;;;;;;;;;;13.48;98.05;101700.34;5070200;28;19951;-62
2022/09/05 04:09:22;;;;;;;;;;;;;;;13.41;94.70;101702.06;5070167;28;19951;-61
2022/09/05 04:11:50;;;;;;;;;;;;;;;13.32;95.14;101704.66;5073287;28;19912;-61
2022/09/05 04:14:22;;;;;;;;;;;;;;;13.31;97.53;101702.84;5073154;28;19919;-61
2022/09/05 04:16:48;;;;;;;;;;;;;;;13.30;100.00;101701.97;5073261;28;19924;-61
2022/09/05 04:19:33;;;;;;;;;;;;;;;13.32;94.88;101704.66;5073089;28;19913;-61
2022/09/05 04:21:58;;;;;;;;;;;;;;;13.35;96.19;101704.69;5068379;28;19912;-62
2022/09/05 04:24:36;;;;;;;;;;;;;;;13.40;98.14;101703.84;5073224;28;19974;-61
2022/09/05 04:27:14;;;;;;;;;;;;;;;13.37;97.33;101708.28;5069771;28;19912;-61
2022/09/05 04:30:05;;;;;;;;;;;;;;;13.39;100.00;101696.75;5072858;28;19916;-61
2022/09/05 04:32:36;;;;;;;;;;;;;;;13.35;98.71;101699.38;4999567;28;20021;-61
2022/09/05 04:35:13;;;;;;;;;;;;;;;13.33;99.68;101704.66;4999695;28;19917;-61
2022/09/05 04:37:53;;;;;;;;;;;;;;;13.33;99.94;101702.00;5000622;28;19913;-61
2022/09/05 04:40:54;;;;;;;;;;;;;;;13.25;99.30;101703.69;5000677;28;19913;-61
2022/09/05 04:43:38;;;;;;;;;;;;;;;13.18;100.00;101705.44;4944910;29;19921;-61
2022/09/05 04:46:12;;;;;;;;;;;;;;;13.16;100.00;101711.63;4945276;29;20345;-62
2022/09/05 04:48:44;;;;;;;;;;;;;;;13.14;100.00;101711.59;4942436;29;20303;-62
2022/09/05 04:51:24;;;;;;;;;;;;;;;13.15;100.00;101708.09;4943757;28;19921;-61
2022/09/05 04:53:49;;;;;;;;;;;;;;;13.17;100.00;101713.41;4943791;29;19922;-61
2022/09/05 04:56:18;;;;;;;;;;;;;;;13.18;98.67;101708.09;4942915;29;20277;-62
2022/09/05 04:58:49;;;;;;;;;;;;;;;13.18;99.24;101723.16;4942928;29;19961;-61
2022/09/05 05:01:23;;;;;;;;;;;;;;;12.99;100.00;101728.31;4943001;28;20278;-61
2022/09/05 05:03:48;;;;;;;;;;;;;;;12.76;100.00;101719.25;4943570;29;19955;-61
2022/09/05 05:06:32;;;;;;;;;;;;;;;12.81;100.00;101726.34;4943013;29;19915;-61
2022/09/05 05:09:05;;;;;;;;;;;;;;;12.90;100.00;101726.47;4961592;28;19918;-61
2022/09/05 05:11:41;;;;;;;;;;;;;;;12.95;100.00;101726.50;4987176;28;19914;-62
2022/09/05 05:14:10;;;;;;;;;;;;;;;12.98;100.00;101726.50;4987585;28;19953;-62
2022/09/05 05:16:45;;;;;;;;;;;;;;;12.96;100.00;101730.03;4999617;28;20378;-62
2022/09/05 05:19:29;;;;;;;;;;;;;;;12.97;100.00;101724.72;5081038;28;20322;-62
2022/09/05 05:21:56;;;;;;;;;;;;;;;12.96;100.00;101728.28;5070720;28;19923;-62
2022/09/05 05:24:25;;;;;;;;;;;;;;;12.98;100.00;101729.16;5072898;28;19947;-62
2022/09/05 05:26:50;;;;;;;;;;;;;;;13.00;100.00;101734.50;5072363;28;20367;-62
2022/09/05 05:29:23;;;;;;;;;;;;;;;13.01;100.00;101730.97;5072176;28;19939;-62
2022/09/05 05:31:50;;;;;;;;;;;;;;;13.06;100.00;101729.22;5071407;28;20359;-62
2022/09/05 05:34:31;;;;;;;;;;;;;;;13.11;100.00;101731.94;5064579;28;19935;-62
2022/09/05 05:36:56;;;;;;;;;;;;;;;13.21;100.00;101733.78;5069415;28;19955;-62
2022/09/05 05:39:28;;;;;;;;;;;;;;;13.27;100.00;101735.59;5072233;28;19923;-62
2022/09/05 05:41:54;;;;;;;;;;;;;;;13.34;100.00;101734.75;5071295;28;19920;-62
2022/09/05 05:44:27;;;;;;;;;;;;;;;13.43;100.00;101729.53;5072518;28;20356;-62
2022/09/05 05:46:58;;;;;;;;;;;;;;;13.51;100.00;101729.59;5072415;28;20334;-62
2022/09/05 05:49:26;;;;;;;;;;;;;;;13.63;100.00;101726.09;5072062;28;19913;-62
2022/09/05 05:52:24;;;;;;;;;;;;;;;13.75;100.00;101736.81;5072338;28;19912;-62
2022/09/05 05:55:01;;;;;;;;;;;;;;;13.84;100.00;101747.50;4979907;28;19968;-62
2022/09/05 05:57:45;;;;;;;;;;;;;;;13.89;100.00;101750.16;4990835;28;20284;-63
2022/09/05 06:00:30;;;;;;;;;;;;;;;13.97;100.00;101747.56;4990526;28;20372;-63
2022/09/05 06:03:14;;;;;;;;;;;;;;;14.10;100.00;101738.75;4991797;28;20415;-64
2022/09/05 06:05:48;;;;;;;;;;;;;;;14.26;99.07;101740.56;4991881;28;19913;-62
2022/09/05 06:08:28;;;;;;;;;;;;;;;14.41;100.00;101745.03;4994429;28;19937;-62
2022/09/05 06:11:05;;;;;;;;;;;;;;;14.53;100.00;101753.94;4991881;28;19920;-63
2022/09/05 06:13:30;;;;;;;;;;;;;;;14.62;100.00;101752.25;4991715;28;19953;-63
2022/09/05 06:16:14;;;;;;;;;;;;;;;14.72;100.00;101749.59;4992146;28;19925;-63
2022/09/05 06:18:58;;;;;;;;;;;;;;;14.81;100.00;101762.94;4989114;28;20004;-63
2022/09/05 06:21:34;;;;;;;;;;;;;;;14.97;100.00;101761.16;4991174;28;19924;-63
2022/09/05 06:24:08;;;;;;;;;;;;;;;15.14;100.00;101758.50;4992229;28;20452;-65
2022/09/05 06:26:52;;;;;;;;;;;;;;;15.25;100.00;101751.38;4980170;28;19918;-63
2022/09/05 06:29:33;;;;;;;;;;;;;;;15.43;100.00;101749.59;4994165;28;20407;-65
2022/09/05 06:32:01;;;;;;;;;;;;;;;15.58;100.00;101756.66;5072025;28;19923;-62
2022/09/05 06:34:32;;;;;;;;;;;;;;;15.73;100.00;101748.66;5071923;28;19949;-62
2022/09/05 06:37:00;;;;;;;;;;;;;;;15.90;100.00;101753.97;5072096;28;19966;-62
2022/09/05 06:39:25;;;;;;;;;;;;;;;16.05;97.20;101758.34;5071530;28;19946;-62
2022/09/05 06:42:00;;;;;;;;;;;;;;;16.26;100.00;101759.16;5072562;28;19913;-61
2022/09/05 06:44:35;;;;;;;;;;;;;;;16.45;100.00;101765.28;5070721;28;19935;-63
2022/09/05 06:47:05;;;;;;;;;;;;;;;16.62;100.00;101765.19;5072462;28;19916;-64
2022/09/05 06:49:54;;;;;;;;;;;;;;;16.80;100.00;101761.50;5072606;28;19931;-64
2022/09/05 06:52:22;;;;;;;;;;;;;;;16.98;100.00;101761.41;5071865;28;19922;-64
2022/09/05 06:55:06;;;;;;;;;;;;;;;17.13;100.00;101754.16;5072593;28;20015;-62
2022/09/05 06:57:49;;;;;;;;;;;;;;;17.30;100.00;101752.25;5072742;28;19913;-62
2022/09/05 07:00:19;;;;;;;;;;;;;;;17.46;100.00;101760.09;5072361;28;19912;-62
2022/09/05 07:03:03;;;;;;;;;;;;;;;17.58;100.00;101760.84;5072307;28;19959;-64
2022/09/05 07:05:34;;;;;;;;;;;;;;;17.75;100.00;101760.69;5070139;28;20011;-64
2022/09/05 07:08:04;;;;;;;;;;;;;;;17.90;100.00;101764.13;5072533;28;19923;-64
2022/09/05 07:10:33;;;;;;;;;;;;;;;18.08;100.00;101771.91;5072444;28;19912;-65
2022/09/05 07:13:09;;;;;;;;;;;;;;;18.25;98.12;101777.06;5071664;28;19973;-65
2022/09/05 07:15:43;;;;;;;;;;;;;;;18.37;98.34;101773.34;5072565;28;19912;-63
2022/09/05 07:18:24;;;;;;;;;;;;;;;18.46;97.27;101781.25;5072460;28;19952;-63
2022/09/05 07:20:56;;;;;;;;;;;;;;;18.60;95.02;101772.13;5071411;28;20417;-66
2022/09/05 07:23:22;;;;;;;;;;;;;;;18.76;92.70;101772.78;5071939;28;19935;-64
2022/09/05 07:25:48;;;;;;;;;;;;;;;18.88;91.23;101767.28;5071002;28;20370;-65
2022/09/05 07:28:14;;;;;;;;;;;;;;;18.99;89.11;101769.78;5072003;28;20006;-62
2022/09/05 07:30:45;;;;;;;;;;;;;;;19.13;83.78;101772.22;5072551;28;19974;-63
2022/09/05 07:33:11;;;;;;;;;;;;;;;19.27;83.47;101772.00;5069859;28;20003;-63
2022/09/05 07:35:38;;;;;;;;;;;;;;;19.42;83.52;101774.41;5072157;28;20325;-63
2022/09/05 07:38:12;;;;;;;;;;;;;;;19.54;83.11;101783.16;5070931;28;19912;-63
2022/09/05 07:40:39;;;;;;;;;;;;;;;19.64;82.15;101785.66;5069723;28;19916;-63
2022/09/05 07:43:11;;;;;;;;;;;;;;;19.80;80.43;101791.59;5071562;28;19916;-64
2022/09/05 07:45:42;;;;;;;;;;;;;;;19.93;79.46;101783.34;5071886;28;19912;-63
2022/09/05 07:48:13;;;;;;;;;;;;;;;20.08;79.57;101785.72;5072088;28;19920;-63
2022/09/05 07:51:04;;;;;;;;;;;;;;;20.25;76.33;101785.34;5071692;28;19935;-63
2022/09/05 07:53:30;;;;;;;;;;;;;;;20.51;75.53;101787.47;5067234;28;19919;-63
2022/09/05 07:55:57;;;;;;;;;;;;;;;20.77;73.26;101791.41;5071528;28;20294;-63
2022/09/05 07:58:30;;;;;;;;;;;;;;;21.16;71.87;101785.09;5070352;28;19927;-64
2022/09/05 08:00:57;;;;;;;;;;;;;;;21.51;71.12;101789.59;5068220;28;19934;-64
2022/09/05 08:03:24;;;;;;;;;;;;;;;21.74;68.92;101799.75;5071150;28;19916;-64
2022/09/05 08:05:53;;;;;;;;;;;;;;;21.89;67.65;101789.50;5071477;28;19912;-63
2022/09/05 08:08:20;;;;;;;;;;;;;;;21.98;65.28;101796.41;5071083;28;19912;-63
2022/09/05 08:11:08;;;;;;;;;;;;;;;22.07;65.00;101796.16;5071110;28;19916;-63
2022/09/05 08:13:53;;;;;;;;;;;;;;;22.16;63.89;101787.78;5071118;28;19920;-62
2022/09/05 08:16:21;;;;;;;;;;;;;;;22.27;64.85;101788.38;5075693;28;19963;-65
2022/09/05 08:19:03;;;;;;;;;;;;;;;22.42;63.84;101780.78;5070297;28;19961;-63
2022/09/05 08:21:34;;;;;;;;;;;;;;;22.56;63.01;101786.63;5070726;28;19920;-63
2022/09/05 08:24:10;;;;;;;;;;;;;;;22.76;60.94;101785.09;5068555;28;20058;-63
2022/09/05 08:26:47;;;;;;;;;;;;;;;22.96;61.11;101785.38;5069942;28;20445;-63
2022/09/05 08:29:29;;;;;;;;;;;;;;;23.37;58.84;101784.91;5071243;28;19920;-66
2022/09/05 08:32:10;;;;;;;;;;;;;;;23.51;60.01;101787.16;5068723;28;20374;-64
2022/09/05 08:34:42;;;;;;;;;;;;;;;23.54;59.10;101795.13;5069716;28;19920;-64
2022/09/05 08:37:11;;;;;;;;;;;;;;;23.64;58.81;101790.28;5071141;28;19965;-68
2022/09/05 08:39:38;;;;;;;;;;;;;;;23.84;57.38;101798.56;5068485;28;19916;-64
2022/09/05 08:42:13;;;;;;;;;;;;;;;24.10;56.66;101791.34;5070988;28;20003;-67
2022/09/05 08:45:06;;;;;;;;;;;;;;;24.33;56.24;101793.19;5067269;28;19917;-66
2022/09/05 08:47:43;;;;;;;;;;;;;;;24.66;52.30;101795.50;5070562;28;19919;-67
2022/09/05 08:50:21;;;;;;;;;;;;;;;25.09;54.60;101792.00;5070676;28;19966;-65
2022/09/05 08:52:51;;;;;;;;;;;;;;;26.09;52.72;101788.53;5067789;28;20011;-65
2022/09/05 08:55:19;;;;;;;;;;;;;;;26.81;47.88;101779.78;5071514;28;19969;-65
2022/09/05 08:57:44;;;;;;;;;;;;;;;27.52;48.67;101782.53;5070962;28;19913;-64
2022/09/05 09:00:10;;;;;;;;;;;;;;;28.03;48.66;101778.97;5070761;28;20276;-65
2022/09/05 09:02:54;;;;;;;;;;;;;;;28.60;48.17;101782.13;5071029;28;20021;-65
2022/09/05 09:05:33;;;;;;;;;;;;;;;29.10;43.65;101777.44;5069387;28;20420;-65
2022/09/05 09:08:12;;;;;;;;;;;;;;;29.63;43.91;101771.59;5067579;28;19916;-66
2022/09/05 09:10:54;;;;;;;;;;;;;;;30.02;37.11;101768.25;5070651;28;20003;-65
2022/09/05 09:13:19;;;;;;;;;;;;;;;30.19;41.98;101778.06;5069432;28;19939;-65
2022/09/05 09:15:44;;;;;;;;;;;;;;;30.37;38.79;101776.00;5070800;28;20355;-65
2022/09/05 09:18:14;;;;;;;;;;;;;;;30.68;38.29;101778.59;5071229;28;19952;-65
2022/09/05 09:20:40;;;;;;;;;;;;;;;30.83;38.98;101772.13;5070836;28;20318;-65
2022/09/05 09:23:15;;;;;;;;;;;;;;;31.29;36.01;101771.75;5069966;28;19919;-65
2022/09/05 09:25:43;;;;;;;;;;;;;;;31.39;36.26;101760.19;5070959;28;20268;-64
2022/09/05 09:28:26;;;;;;;;;;;;;;;31.58;33.04;101757.94;5070748;28;19924;-66
2022/09/05 09:30:55;;;;;;;;;;;;;;;31.25;35.91;101762.03;5074848;28;19917;-66
2022/09/05 09:33:28;;;;;;;;;;;;;;;30.75;35.55;101758.97;5073947;28;20357;-65
2022/09/05 09:36:03;;;;;;;;;;;;;;;30.35;39.86;101757.97;5072884;28;19923;-64
2022/09/05 09:38:31;;;;;;;;;;;;;;;29.94;38.64;101764.25;5073275;28;20366;-65
2022/09/05 09:41:15;;;;;;;;;;;;;;;29.72;38.85;101746.50;5072088;28;19923;-65
2022/09/05 09:44:06;;;;;;;;;;;;;;;29.85;33.89;101758.44;5072569;28;19920;-69
2022/09/05 09:46:40;;;;;;;;;;;;;;;31.11;32.62;101756.63;4995037;28;19920;-67
2022/09/05 09:49:24;;;;;;;;;;;;;;;32.27;33.39;101759.44;4999007;28;19917;-63
2022/09/05 09:52:07;;;;;;;;;;;;;;;32.98;28.98;101749.56;5000970;28;19952;-64
2022/09/05 09:54:45;;;;;;;;;;;;;;;33.30;30.69;101754.44;4999991;28;19928;-63
2022/09/05 09:57:29;;;;;;;;;;;;;;;34.00;27.08;101762.66;5005866;28;20011;-63
2022/09/05 10:00:03;;;;;;;;;;;;;;;34.61;29.12;101754.00;5002557;28;20349;-64
2022/09/05 10:02:31;;;;;;;;;;;;;;;35.50;29.44;101739.19;5001948;28;20015;-63
2022/09/05 10:05:15;;;;;;;;;;;;;;;35.97;26.06;101738.72;4998355;28;19964;-64
2022/09/05 10:07:48;;;;;;;;;;;;;;;36.10;24.51;101744.84;5001725;28;19913;-64
2022/09/05 10:10:28;;;;;;;;;;;;;;;36.00;24.43;101732.94;5006528;28;19913;-64
2022/09/05 10:13:02;;;;;;;;;;;;;;;35.84;23.63;101748.09;5004125;28;20438;-64
2022/09/05 10:15:36;;;;;;;;;;;;;;;36.17;24.85;101731.41;4998750;28;20324;-64
2022/09/05 10:18:20;;;;;;;;;;;;;;;36.97;25.60;101737.81;5004853;28;20455;-64
2022/09/05 10:20:59;;;;;;;;;;;;;;;36.95;25.33;101734.34;5004155;28;20004;-64
2022/09/05 10:23:34;;;;;;;;;;;;;;;36.92;23.15;101735.50;5034092;28;20367;-64
2022/09/05 10:26:11;;;;;;;;;;;;;;;36.66;21.93;101729.66;5071999;28;19909;-64
2022/09/05 10:28:38;;;;;;;;;;;;;;;36.76;24.47;101725.03;5075196;28;19995;-63
2022/09/05 10:31:09;;;;;;;;;;;;;;;37.12;20.72;101722.59;5075394;28;19912;-64
2022/09/05 10:33:37;;;;;;;;;;;;;;;37.53;20.81;101722.41;5071555;28;20279;-66
2022/09/05 10:36:22;;;;;;;;;;;;;;;37.83;21.86;101728.69;5072518;28;20018;-64
2022/09/05 10:38:52;;;;;;;;;;;;;;;37.91;21.82;101719.66;5072060;28;19923;-64
2022/09/05 10:41:24;;;;;;;;;;;;;;;37.89;19.92;101718.94;5071251;28;19928;-65
2022/09/05 10:43:58;;;;;;;;;;;;;;;38.34;19.95;101715.38;5071621;28;19963;-64
2022/09/05 10:46:27;;;;;;;;;;;;;;;38.59;19.79;101715.66;5073016;28;19947;-64
2022/09/05 10:48:55;;;;;;;;;;;;;;;39.23;20.20;101710.91;5073103;28;20519;-66
2022/09/05 10:51:28;;;;;;;;;;;;;;;39.43;20.73;101706.03;5071758;28;19923;-64
2022/09/05 10:54:18;;;;;;;;;;;;;;;40.54;20.13;101716.25;5069762;28;19912;-64
2022/09/05 10:56:48;;;;;;;;;;;;;;;41.25;17.74;101705.53;5072384;28;19916;-65
2022/09/05 10:59:25;;;;;;;;;;;;;;;40.49;19.75;101701.22;5072186;28;19916;-65
2022/09/05 11:02:00;;;;;;;;;;;;;;;40.50;21.13;101703.81;5069496;28;20031;-64
2022/09/05 11:04:28;;;;;;;;;;;;;;;41.95;17.24;101709.56;5073455;28;19917;-64
2022/09/05 11:06:56;;;;;;;;;;;;;;;42.73;17.12;101700.44;5072546;28;19913;-64
2022/09/05 11:09:39;;;;;;;;;;;;;;;43.44;18.99;101694.63;5072745;28;19920;-64
2022/09/05 11:12:25;;;;;;;;;;;;;;;43.40;17.35;101685.78;5076874;28;19966;-64
2022/09/05 11:15:01;;;;;;;;;;;;;;;43.30;17.10;101683.28;5072373;28;20256;-64
2022/09/05 11:17:40;;;;;;;;;;;;;;;43.42;15.83;101678.09;5072225;28;19916;-64
2022/09/05 11:20:18;;;;;;;;;;;;;;;42.97;15.59;101689.13;5071662;28;19912;-64
2022/09/05 11:22:45;;;;;;;;;;;;;;;42.36;17.40;101693.75;5074267;28;19916;-64
2022/09/05 11:25:18;;;;;;;;;;;;;;;42.83;16.76;101682.50;5073953;28;19920;-64
2022/09/05 11:27:46;;;;;;;;;;;;;;;43.17;17.63;101674.72;5074032;28;19920;-64
2022/09/05 11:30:12;;;;;;;;;;;;;;;43.70;15.26;101675.50;5074388;28;19924;-64
2022/09/05 11:32:43;;;;;;;;;;;;;;;43.39;15.29;101681.25;5073891;28;19913;-64
2022/09/05 11:35:09;;;;;;;;;;;;;;;43.13;15.52;101676.16;5073802;28;19973;-64
2022/09/05 11:37:51;;;;;;;;;;;;;;;43.04;17.70;101680.09;5069847;28;20325;-64
2022/09/05 11:40:21;;;;;;;;;;;;;;;43.36;16.40;101679.72;5070798;28;19920;-67
2022/09/05 11:42:58;;;;;;;;;;;;;;;43.48;17.02;101670.94;5071099;28;19936;-64
2022/09/05 11:45:35;;;;;;;;;;;;;;;44.39;17.35;101677.06;5070797;28;19919;-65
2022/09/05 11:48:04;;;;;;;;;;;;;;;45.40;14.78;101676.00;5068589;28;19923;-64
2022/09/05 11:50:47;;;;;;;;;;;;;;;44.24;14.01;101664.25;5069345;28;19916;-64
2022/09/05 11:53:12;;;;;;;;;;;;;;;43.21;15.55;101667.75;5071772;28;19966;-64
2022/09/05 11:55:37;;;;;;;;;;;;;;;43.30;15.65;101674.06;5072197;28;19944;-64
2022/09/05 11:58:02;;;;;;;;;;;;;;;43.09;16.08;101666.47;5071481;28;20282;-64
2022/09/05 12:00:48;;;;;;;;;;;;;;;43.68;15.00;101666.50;5071163;28;19912;-64
2022/09/05 12:03:32;;;;;;;;;;;;;;;43.89;14.85;101667.66;5070539;28;19920;-64
2022/09/05 12:06:03;;;;;;;;;;;;;;;42.80;16.96;101668.97;5072192;28;19912;-64
2022/09/05 12:08:51;;;;;;;;;;;;;;;42.40;16.05;101662.66;5071891;28;19930;-64
2022/09/05 12:11:17;;;;;;;;;;;;;;;43.60;15.12;101654.63;5070143;28;20278;-64
2022/09/05 12:13:54;;;;;;;;;;;;;;;44.35;15.63;101661.78;5071601;28;19916;-64
2022/09/05 12:16:26;;;;;;;;;;;;;;;45.02;15.82;101651.25;5073321;28;19918;-64
2022/09/05 12:18:53;;;;;;;;;;;;;;;45.34;15.36;101648.94;5073218;28;19959;-64
2022/09/05 12:21:18;;;;;;;;;;;;;;;45.67;15.32;101639.91;5073466;28;19955;-64
2022/09/05 12:23:52;;;;;;;;;;;;;;;45.64;13.30;101640.28;5072970;28;19982;-65
2022/09/05 12:26:22;;;;;;;;;;;;;;;45.19;14.07;101645.38;5073119;28;19912;-64
2022/09/05 12:28:49;;;;;;;;;;;;;;;44.14;15.32;101639.47;5072876;28;20383;-64
2022/09/05 12:31:39;;;;;;;;;;;;;;;44.95;15.12;101639.19;5073115;28;20017;-64
2022/09/05 12:34:09;;;;;;;;;;;;;;;46.27;14.70;101639.28;4999748;28;19914;-64
2022/09/05 12:36:37;;;;;;;;;;;;;;;47.44;14.17;101647.22;4999556;28;20473;-64
2022/09/05 12:39:05;;;;;;;;;;;;;;;48.18;13.40;101643.03;5000391;28;19923;-64
2022/09/05 12:42:01;;;;;;;;;;;;;;;48.02;12.38;101637.94;5001657;28;19979;-65
2022/09/05 12:44:26;;;;;;;;;;;;;;;47.31;14.46;101640.56;4948574;28;19982;-64
2022/09/05 12:47:18;;;;;;;;;;;;;;;47.69;14.19;101626.91;4948332;28;19943;-67
2022/09/05 12:50:00;;;;;;;;;;;;;;;47.99;12.03;101638.41;4949250;28;20024;-65
2022/09/05 12:52:32;;;;;;;;;;;;;;;47.73;13.70;101637.44;4947459;28;19993;-66
2022/09/05 12:55:04;;;;;;;;;;;;;;;48.53;12.78;101633.34;4952855;28;19915;-65
2022/09/05 12:57:34;;;;;;;;;;;;;;;48.81;13.96;101630.06;4949756;28;19914;-65
2022/09/05 13:00:08;;;;;;;;;;;;;;;49.09;12.37;101625.06;4953974;28;19914;-65
2022/09/05 13:02:35;;;;;;;;;;;;;;;49.13;11.50;101617.91;4950538;28;20431;-64
2022/09/05 13:05:02;;;;;;;;;;;;;;;47.45;11.81;101605.03;4954131;28;19914;-65
2022/09/05 13:07:30;;;;;;;;;;;;;;;45.18;14.34;101615.81;4954227;28;19921;-65
2022/09/05 13:10:01;;;;;;;;;;;;;;;46.18;12.71;101615.38;4956902;28;19943;-65
2022/09/05 13:12:31;;;;;;;;;;;;;;;46.85;12.90;101612.66;5012497;28;19932;-65